Pagrindinis puslapis
METAR-TAF:

METAR-TAF

Oro uostai :

Shageluk, Aliaska, Jungtinės Amerikos Valstijos

platuma: 62-41-32N, ilguma: 159-34-09W, Aukštis: 24 m

Dabartinis oras

Ataskaita buvo paskelbta 19 minutes, ne 20:56 UTC
Vėjas 5 kt iš Pietų/Pietvakarių
Temperatūra 6°C
Drėgmė 65%
Slėgis 1003 hPa
Matomumas: 16.1 km
Giedras dangus

METAR: PAHX 212056Z AUTO 20005KT 10SM CLR 06/00 A2963 RMK AO2 SLP033 T00560000 58001

Laikas: 13:15 (21:15 UTC)


TAF: trūkstamas

Orai ataskaitas ir orų prognozės (METAR, TAF).

turimą stotys yra geltonos ir raudonos taškus žemėlapyje.

Perkelti pele per norėdami pamatyti stoties vardą.

Tada spustelėkite, norėdami matyti oro stebėjimo ir prognozės.

Norėdami pakeisti žemėlapį: spustelėkite ant žalios mygtukų su juodo kryžiaus žemyn,; žalią mygtuką su brūkšneliu, jei norite nutolinti; arba žalių rodyklių gretimoms žemėlapius.


METAR-TAF: